Time;durP1;ratioP1;P1;durP2;ratioP2;P2;SDS_P1;SDS_P2;PMS_P1;PMS_P2;Temp;Humidity;BMP_temperature;BMP_pressure;BME280_temperature;BME280_humidity;BME280_pressure;Samples;Min_cycle;Max_cycle;Signal;HPM_P1;HPM_P2
2021/10/17 00:01:22;;;;;;;43.83;25.13;;;;;;;4.03;52.35;94481.69;4956728;28;20321;-80
2021/10/17 00:03:49;;;;;;;46.30;25.93;;;;;;;3.90;52.61;94479.97;4983038;28;20258;-79
2021/10/17 00:06:19;;;;;;;53.63;26.10;;;;;;;3.83;52.93;94494.91;4974663;28;20230;-80
2021/10/17 00:08:45;;;;;;;61.33;29.40;;;;;;;3.80;52.42;94481.41;4989494;28;20266;-80
2021/10/17 00:11:13;;;;;;;53.53;28.90;;;;;;;3.78;52.36;94499.97;4963985;28;20236;-80
2021/10/17 00:13:39;;;;;;;60.30;31.53;;;;;;;3.74;52.46;94496.16;4973032;28;20673;-80
2021/10/17 00:16:05;;;;;;;55.50;30.60;;;;;;;3.83;52.89;94494.13;4977828;28;20206;-80
2021/10/17 00:18:35;;;;;;;71.23;30.33;;;;;;;3.86;53.14;94506.81;4975828;28;20224;-80
2021/10/17 00:21:00;;;;;;;47.40;27.33;;;;;;;3.81;53.10;94489.09;4960119;28;20232;-80
2021/10/17 00:23:26;;;;;;;55.30;28.17;;;;;;;3.91;53.33;94486.00;4940441;28;20271;-81
2021/10/17 00:25:54;;;;;;;45.37;26.23;;;;;;;3.88;52.83;94495.09;4956698;28;20229;-80
2021/10/17 00:28:19;;;;;;;50.80;28.17;;;;;;;3.86;52.96;94476.13;4955794;28;20219;-80
2021/10/17 00:30:44;;;;;;;49.30;26.57;;;;;;;3.91;53.58;94475.53;4966980;28;20277;-80
2021/10/17 00:33:10;;;;;;;41.77;25.13;;;;;;;3.89;53.62;94473.13;4991491;28;20306;-80
2021/10/17 00:35:37;;;;;;;37.83;24.03;;;;;;;3.98;53.53;94479.72;4972841;28;20235;-79
2021/10/17 00:38:04;;;;;;;47.37;24.37;;;;;;;3.92;53.79;94477.94;4954892;28;20212;-80
2021/10/17 00:40:32;;;;;;;38.47;23.20;;;;;;;3.88;53.38;94483.81;4972419;28;20235;-80
2021/10/17 00:42:57;;;;;;;43.23;24.23;;;;;;;3.87;53.71;94484.81;4958387;28;20227;-80
2021/10/17 00:45:27;;;;;;;39.70;23.07;;;;;;;3.86;53.55;94484.00;4971365;28;20218;-80
2021/10/17 00:47:56;;;;;;;41.90;23.13;;;;;;;3.89;53.84;94483.63;4957721;28;20220;-80
2021/10/17 00:50:22;;;;;;;34.10;20.80;;;;;;;3.81;54.12;94485.66;4963188;28;20230;-80
2021/10/17 00:52:47;;;;;;;37.17;22.93;;;;;;;3.70;54.15;94478.44;4975642;28;20580;-80
2021/10/17 00:55:14;;;;;;;42.07;23.03;;;;;;;3.68;54.11;94485.72;4981583;28;20214;-80
2021/10/17 00:57:44;;;;;;;40.90;23.70;;;;;;;3.68;54.32;94483.91;4990941;28;20218;-80
2021/10/17 01:00:11;;;;;;;41.53;22.90;;;;;;;3.71;54.23;94483.47;4957318;28;20302;-80
2021/10/17 01:02:36;;;;;;;38.37;23.67;;;;;;;3.64;54.46;94461.72;4958214;28;20211;-80
2021/10/17 01:05:03;;;;;;;39.33;22.63;;;;;;;3.63;54.39;94472.44;4980999;28;20555;-80
2021/10/17 01:07:28;;;;;;;36.70;23.20;;;;;;;3.56;54.53;94464.56;4955420;28;20633;-80
2021/10/17 01:09:54;;;;;;;35.97;22.40;;;;;;;3.47;54.50;94468.44;4956718;28;20227;-81
2021/10/17 01:12:19;;;;;;;36.87;23.10;;;;;;;3.36;54.59;94469.06;4976413;28;20270;-81
2021/10/17 01:14:44;;;;;;;40.73;23.37;;;;;;;3.26;54.20;94460.84;4989930;28;20280;-80
2021/10/17 01:17:12;;;;;;;39.87;22.60;;;;;;;3.35;54.46;94472.72;4940234;28;20212;-80
2021/10/17 01:19:40;;;;;;;36.67;22.97;;;;;;;3.33;54.25;94454.59;4973546;28;20212;-80
2021/10/17 01:22:05;;;;;;;38.73;22.67;;;;;;;3.42;54.93;94460.41;4938799;28;20218;-80
2021/10/17 01:24:33;;;;;;;36.73;22.27;;;;;;;3.43;54.83;94460.19;4974198;28;20223;-80
2021/10/17 01:26:58;;;;;;;36.87;21.90;;;;;;;3.47;54.26;94457.97;4993340;28;20222;-80
2021/10/17 01:29:26;;;;;;;40.67;22.57;;;;;;;3.29;54.95;94457.84;4973116;28;20215;-80
2021/10/17 01:31:54;;;;;;;40.67;23.57;;;;;;;3.21;55.19;94471.13;4966248;28;20295;-79
2021/10/17 01:34:20;;;;;;;46.93;23.40;;;;;;;3.14;54.69;94465.09;4956409;28;20675;-80
2021/10/17 01:36:46;;;;;;;42.60;22.97;;;;;;;3.13;55.15;94464.31;4959683;28;20298;-80
2021/10/17 01:39:15;;;;;;;44.93;23.87;;;;;;;3.08;55.22;94467.56;4988310;28;20211;-80
2021/10/17 01:41:42;;;;;;;47.43;24.80;;;;;;;3.16;55.23;94470.97;4976256;28;20211;-80
2021/10/17 01:44:32;;;;;;;46.63;25.07;;;;;;;3.24;54.86;94471.53;4974519;28;20211;-80
2021/10/17 01:47:00;;;;;;;49.57;27.00;;;;;;;3.32;55.01;94470.53;4985407;28;20293;-80
2021/10/17 01:49:25;;;;;;;65.00;30.10;;;;;;;3.42;54.95;94465.66;4989939;28;20308;-80
2021/10/17 01:51:51;;;;;;;59.67;29.77;;;;;;;3.58;55.24;94457.31;4978367;28;20295;-80
2021/10/17 01:54:19;;;;;;;61.20;29.80;;;;;;;3.73;55.35;94460.47;4973115;28;20252;-80
2021/10/17 01:56:44;;;;;;;58.53;29.07;;;;;;;3.88;55.55;94461.03;4973563;28;20222;-80
2021/10/17 01:59:10;;;;;;;62.10;31.43;;;;;;;3.98;56.16;94463.19;4973529;28;20217;-80
2021/10/17 02:01:37;;;;;;;64.47;30.87;;;;;;;4.08;55.78;94466.97;4978391;28;20289;-79
2021/10/17 02:04:03;;;;;;;69.87;32.07;;;;;;;4.20;56.14;94474.16;4972443;28;20220;-80
2021/10/17 02:06:33;;;;;;;75.37;32.27;;;;;;;4.29;56.29;94465.84;4990022;28;20287;-80
2021/10/17 02:08:59;;;;;;;82.00;32.30;;;;;;;4.35;55.93;94469.41;4954569;28;20215;-80
2021/10/17 02:11:28;;;;;;;205.50;37.83;;;;;;;4.47;56.62;94467.72;4974132;28;20208;-80
2021/10/17 02:13:53;;;;;;;245.83;37.57;;;;;;;4.57;56.24;94468.03;4959090;28;20243;-79
2021/10/17 02:16:22;;;;;;;243.03;38.33;;;;;;;4.73;56.40;94472.78;4975746;28;20292;-79
2021/10/17 02:18:49;;;;;;;346.87;42.17;;;;;;;4.80;56.50;94472.72;4990101;28;20283;-80
2021/10/17 02:21:17;;;;;;;212.43;37.17;;;;;;;5.02;56.59;94474.75;4989176;28;20299;-80
2021/10/17 02:23:43;;;;;;;241.13;40.13;;;;;;;5.05;57.04;94463.81;4970867;28;20210;-80
2021/10/17 02:26:10;;;;;;;315.87;43.40;;;;;;;5.15;56.98;94479.06;4972399;28;20584;-80
2021/10/17 02:28:40;;;;;;;350.47;40.93;;;;;;;5.32;57.20;94471.44;4975592;28;20223;-80
2021/10/17 02:31:06;;;;;;;381.87;42.23;;;;;;;5.21;57.07;94459.00;4980046;28;20295;-79
2021/10/17 02:33:35;;;;;;;347.60;42.60;;;;;;;5.15;57.02;94463.31;4979539;28;20241;-79
2021/10/17 02:36:03;;;;;;;252.53;40.37;;;;;;;5.28;57.16;94475.50;4980770;28;20205;-80
2021/10/17 02:38:32;;;;;;;282.70;43.57;;;;;;;5.40;57.39;94468.53;4980573;28;20228;-79
2021/10/17 02:40:57;;;;;;;151.80;37.30;;;;;;;5.43;57.22;94474.16;5000270;28;20225;-80
2021/10/17 02:43:23;;;;;;;255.73;42.27;;;;;;;5.48;57.69;94468.22;4978857;28;20213;-81
2021/10/17 02:45:50;;;;;;;230.63;41.37;;;;;;;5.56;57.37;94468.75;4962068;28;20632;-80
2021/10/17 02:48:18;;;;;;;299.97;41.23;;;;;;;5.63;57.98;94463.41;4978161;28;20233;-81
2021/10/17 02:50:43;;;;;;;294.53;40.03;;;;;;;5.77;57.96;94462.25;4976527;28;20221;-81
2021/10/17 02:53:09;;;;;;;308.83;40.47;;;;;;;5.84;58.23;94459.53;4979757;28;20205;-81
2021/10/17 02:55:36;;;;;;;361.67;43.20;;;;;;;5.90;58.29;94462.09;4960422;28;20258;-80
2021/10/17 02:58:02;;;;;;;260.37;35.33;;;;;;;5.90;58.25;94454.22;4978548;28;20221;-80
2021/10/17 03:00:28;;;;;;;234.73;33.70;;;;;;;6.00;58.19;94459.75;4961099;28;20289;-79
2021/10/17 03:02:53;;;;;;;267.67;33.50;;;;;;;6.00;57.58;94464.19;4977594;28;20291;-80
2021/10/17 03:05:18;;;;;;;222.87;32.17;;;;;;;5.96;58.09;94460.41;4993216;28;20688;-81
2021/10/17 03:07:46;;;;;;;196.30;31.70;;;;;;;5.87;58.57;94454.66;4998551;28;20225;-79
2021/10/17 03:10:12;;;;;;;223.07;32.33;;;;;;;5.83;58.30;94469.25;4982269;28;20247;-79
2021/10/17 03:12:37;;;;;;;347.33;35.23;;;;;;;5.73;58.22;94460.25;4985698;28;20290;-80
2021/10/17 03:15:06;;;;;;;280.33;32.27;;;;;;;5.75;58.91;94480.03;4965399;28;20767;-80
2021/10/17 03:17:32;;;;;;;401.03;35.93;;;;;;;5.82;58.40;94483.41;4958800;28;20264;-80
2021/10/17 03:20:00;;;;;;;285.60;33.63;;;;;;;5.84;58.88;94462.94;4993454;28;20865;-80
2021/10/17 03:22:28;;;;;;;276.30;33.40;;;;;;;5.91;58.38;94466.31;4981848;28;20212;-80
2021/10/17 03:24:54;;;;;;;160.17;29.40;;;;;;;5.95;58.74;94461.41;4976280;28;20702;-80
2021/10/17 03:27:19;;;;;;;186.70;32.77;;;;;;;5.94;59.06;94460.63;4959863;28;20218;-81
2021/10/17 03:29:45;;;;;;;243.87;33.10;;;;;;;5.92;58.76;94456.59;4945078;28;20219;-80
2021/10/17 03:32:10;;;;;;;213.67;32.30;;;;;;;5.92;58.75;94456.59;4995621;28;20210;-80
2021/10/17 03:34:38;;;;;;;178.93;30.67;;;;;;;6.02;59.23;94454.25;4981577;28;20213;-80
2021/10/17 03:37:04;;;;;;;189.50;30.57;;;;;;;6.02;58.81;94464.78;4988158;28;20709;-79
2021/10/17 03:39:29;;;;;;;95.37;27.37;;;;;;;6.00;59.42;94457.13;4963682;28;20209;-80
2021/10/17 03:41:54;;;;;;;138.67;28.97;;;;;;;6.07;59.09;94457.03;4975523;28;20245;-79
2021/10/17 03:44:20;;;;;;;162.43;29.37;;;;;;;5.96;59.29;94460.41;4976730;28;20221;-79
2021/10/17 03:46:45;;;;;;;176.43;27.17;;;;;;;5.93;59.40;94466.13;4959262;28;20289;-80
2021/10/17 03:49:13;;;;;;;187.17;28.27;;;;;;;5.88;60.03;94468.59;4994942;28;20205;-80
2021/10/17 03:51:41;;;;;;;231.23;28.53;;;;;;;5.96;59.67;94474.38;4996332;28;20678;-80
2021/10/17 03:54:06;;;;;;;173.10;25.77;;;;;;;5.89;59.37;94457.06;4973322;28;20217;-80
2021/10/17 03:56:34;;;;;;;306.23;28.43;;;;;;;5.77;59.40;94466.69;4941459;28;20220;-80
2021/10/17 03:58:59;;;;;;;344.57;32.83;;;;;;;5.76;60.11;94470.34;4991421;28;20588;-80
2021/10/17 04:01:25;;;;;;;90.07;22.40;;;;;;;5.80;59.48;94471.50;4971831;28;20268;-80
2021/10/17 04:03:50;;;;;;;118.00;21.67;;;;;;;5.62;59.70;94467.88;4991784;28;20314;-80
2021/10/17 04:06:15;;;;;;;86.03;21.60;;;;;;;5.63;59.67;94473.94;4977123;28;20249;-80
2021/10/17 04:08:42;;;;;;;133.60;20.57;;;;;;;5.58;60.28;94471.13;4975689;28;20218;-80
2021/10/17 04:11:07;;;;;;;153.80;21.47;;;;;;;5.43;60.31;94476.78;4991269;28;20209;-80
2021/10/17 04:13:35;;;;;;;150.37;22.23;;;;;;;5.61;60.46;94473.31;5000964;28;20220;-80
2021/10/17 04:16:02;;;;;;;126.97;21.00;;;;;;;5.58;59.88;94463.25;5012044;28;20234;-81
2021/10/17 04:18:28;;;;;;;193.83;22.93;;;;;;;5.54;60.41;94459.47;5014026;28;20200;-83
2021/10/17 04:20:53;;;;;;;160.27;22.37;;;;;;;5.55;59.91;94461.06;4980147;28;20224;-80
2021/10/17 04:23:18;;;;;;;126.33;20.47;;;;;;;5.46;60.62;94470.28;4966420;28;20278;-81
2021/10/17 04:25:44;;;;;;;142.87;22.37;;;;;;;5.43;60.00;94457.56;4976773;28;20288;-80
2021/10/17 04:28:11;;;;;;;147.70;26.37;;;;;;;5.45;60.25;94466.03;4975279;28;20299;-80
2021/10/17 04:30:37;;;;;;;103.13;23.07;;;;;;;5.37;60.30;94468.97;4958455;28;20685;-80
2021/10/17 04:33:02;;;;;;;85.93;21.73;;;;;;;5.19;60.60;94464.50;4959055;28;20230;-81
2021/10/17 04:35:31;;;;;;;115.80;22.20;;;;;;;5.13;60.65;94478.50;4992413;28;20214;-79
2021/10/17 04:37:56;;;;;;;81.07;20.87;;;;;;;5.08;60.56;94463.38;4966508;28;20302;-79
2021/10/17 04:40:24;;;;;;;63.17;19.40;;;;;;;5.03;60.61;94471.13;4972111;28;20419;-81
2021/10/17 04:42:54;;;;;;;75.97;19.50;;;;;;;5.26;60.37;94488.06;4974891;28;20218;-81
2021/10/17 04:45:20;;;;;;;68.90;18.43;;;;;;;5.26;60.85;94462.59;4941001;28;20228;-81
2021/10/17 04:47:45;;;;;;;46.43;18.60;;;;;;;5.29;60.87;94477.13;4958911;28;20297;-80
2021/10/17 04:50:10;;;;;;;102.90;20.03;;;;;;;5.37;60.60;94471.59;4991814;28;20224;-80
2021/10/17 04:52:36;;;;;;;97.83;20.73;;;;;;;5.26;60.58;94467.03;4966169;28;20735;-79
2021/10/17 04:55:07;;;;;;;124.70;22.13;;;;;;;5.29;60.78;94482.38;4983065;28;20256;-80
2021/10/17 04:57:33;;;;;;;170.53;24.43;;;;;;;5.27;60.87;94469.44;4970998;28;20213;-80
2021/10/17 04:59:58;;;;;;;252.17;27.47;;;;;;;5.25;61.42;94473.31;4956421;28;20220;-80
2021/10/17 05:02:24;;;;;;;255.70;25.73;;;;;;;5.23;60.81;94464.84;4985700;28;20696;-80
2021/10/17 05:04:49;;;;;;;311.97;29.27;;;;;;;5.40;61.30;94476.41;4971747;28;20213;-80
2021/10/17 05:07:16;;;;;;;294.73;28.40;;;;;;;5.38;61.11;94465.28;4978551;28;20304;-80
2021/10/17 05:09:42;;;;;;;289.73;28.10;;;;;;;5.37;60.99;94471.59;4954670;28;20228;-80
2021/10/17 05:12:07;;;;;;;312.73;29.40;;;;;;;5.29;61.39;94475.31;4956696;28;20225;-80
2021/10/17 05:14:33;;;;;;;247.73;26.90;;;;;;;5.34;61.46;94478.06;4986295;28;20312;-80
2021/10/17 05:16:58;;;;;;;190.57;24.73;;;;;;;5.39;61.33;94480.06;4973719;28;20607;-80
2021/10/17 05:19:26;;;;;;;226.37;26.23;;;;;;;5.38;60.90;94479.25;4955788;28;20220;-81
2021/10/17 05:21:54;;;;;;;217.30;26.60;;;;;;;5.37;61.58;94482.09;4971052;28;20225;-80
2021/10/17 05:24:19;;;;;;;247.93;26.27;;;;;;;5.32;61.56;94479.31;4972516;28;20261;-80
2021/10/17 05:26:45;;;;;;;284.07;26.83;;;;;;;5.39;61.82;94483.47;4959928;28;20229;-80
2021/10/17 05:29:10;;;;;;;236.37;26.77;;;;;;;5.41;61.54;94478.00;4938243;28;20221;-80
2021/10/17 05:31:38;;;;;;;209.30;26.87;;;;;;;5.45;61.96;94494.94;4953893;28;20210;-80
2021/10/17 05:34:03;;;;;;;179.53;25.73;;;;;;;5.47;62.19;94485.03;4969673;28;20276;-80
2021/10/17 05:36:31;;;;;;;150.73;27.40;;;;;;;5.47;62.33;94483.19;4971204;28;20861;-80
2021/10/17 05:38:57;;;;;;;261.87;27.93;;;;;;;5.64;62.34;94480.81;4973636;28;20307;-80
2021/10/17 05:41:22;;;;;;;140.23;25.00;;;;;;;5.78;62.18;94494.56;4964198;28;20301;-80
2021/10/17 05:43:48;;;;;;;106.37;23.63;;;;;;;5.81;62.89;94489.69;4971905;28;20221;-80
2021/10/17 05:46:14;;;;;;;119.10;22.53;;;;;;;5.79;62.33;94481.22;4954798;28;20216;-80
2021/10/17 05:48:39;;;;;;;187.73;24.63;;;;;;;5.79;62.47;94472.53;4971882;28;20220;-80
2021/10/17 05:51:09;;;;;;;188.67;23.83;;;;;;;5.86;61.95;94489.88;4963500;28;20304;-80
2021/10/17 05:53:35;;;;;;;151.97;22.63;;;;;;;5.90;62.43;94475.25;4974611;28;20212;-80
2021/10/17 05:56:00;;;;;;;107.03;20.53;;;;;;;6.03;62.48;94482.97;4979022;28;20322;-80
2021/10/17 05:58:26;;;;;;;161.63;21.80;;;;;;;6.06;62.40;94481.72;4954900;28;20213;-79
2021/10/17 06:00:51;;;;;;;181.20;22.43;;;;;;;5.99;62.53;94478.38;4992415;28;20214;-81
2021/10/17 06:03:19;;;;;;;99.97;19.87;;;;;;;5.74;62.47;94478.47;4955307;28;20563;-80
2021/10/17 06:05:47;;;;;;;115.37;20.30;;;;;;;5.58;62.48;94486.91;4970482;28;20213;-80
2021/10/17 06:08:13;;;;;;;118.40;20.27;;;;;;;5.46;62.93;94493.94;4992155;28;20679;-80
2021/10/17 06:10:43;;;;;;;76.90;18.60;;;;;;;5.35;62.33;94494.63;4987863;28;20217;-80
2021/10/17 06:13:08;;;;;;;104.23;20.03;;;;;;;5.20;62.68;94491.56;4971555;28;20216;-81
2021/10/17 06:15:36;;;;;;;87.87;18.97;;;;;;;5.15;62.63;94492.22;4971791;28;20592;-80
2021/10/17 06:18:03;;;;;;;119.87;19.83;;;;;;;5.11;63.22;94497.09;4972829;28;20225;-80
2021/10/17 06:20:29;;;;;;;66.53;18.70;;;;;;;5.24;62.72;94511.91;4988416;28;20256;-80
2021/10/17 06:22:56;;;;;;;67.60;19.07;;;;;;;5.25;63.00;94507.47;4969684;28;20256;-80
2021/10/17 06:25:21;;;;;;;151.20;20.43;;;;;;;5.23;62.76;94488.50;4937151;28;20216;-80
2021/10/17 06:27:51;;;;;;;129.13;20.87;;;;;;;5.30;62.87;94503.19;4955451;28;20240;-79
2021/10/17 06:30:19;;;;;;;100.63;21.50;;;;;;;5.49;63.24;94512.69;4976671;28;20715;-79
2021/10/17 06:32:45;;;;;;;92.27;20.17;;;;;;;5.49;63.24;94504.81;4964500;28;20225;-80
2021/10/17 06:35:13;;;;;;;90.23;20.70;;;;;;;5.65;63.74;94508.69;4971048;28;20217;-79
2021/10/17 06:37:39;;;;;;;142.20;19.17;;;;;;;5.83;63.47;94516.56;4990161;28;20212;-79
2021/10/17 06:40:05;;;;;;;84.73;19.80;;;;;;;5.90;63.09;94519.97;4970242;28;20224;-80
2021/10/17 06:42:30;;;;;;;161.20;22.10;;;;;;;6.05;63.30;94507.22;4970089;28;21285;-80
2021/10/17 06:44:58;;;;;;;155.47;21.80;;;;;;;6.23;63.83;94495.06;4956292;28;20692;-80
2021/10/17 06:47:26;;;;;;;134.57;21.33;;;;;;;6.36;63.78;94505.41;4967181;28;20706;-80
2021/10/17 06:49:53;;;;;;;127.13;20.27;;;;;;;6.55;63.78;94504.31;4988795;28;20235;-80
2021/10/17 06:52:19;;;;;;;139.50;20.13;;;;;;;6.72;63.50;94510.56;4972107;28;20276;-80
2021/10/17 06:54:44;;;;;;;330.87;23.33;;;;;;;6.67;64.04;94505.19;4967973;28;20232;-80
2021/10/17 06:57:10;;;;;;;174.13;20.57;;;;;;;6.99;64.08;94500.41;4953245;28;20630;-80
2021/10/17 06:59:38;;;;;;;162.27;19.90;;;;;;;7.12;63.72;94503.66;4985964;28;20672;-80
2021/10/17 07:02:03;;;;;;;182.27;19.47;;;;;;;7.38;64.07;94504.25;4955877;28;20327;-80
2021/10/17 07:04:29;;;;;;;236.00;20.90;;;;;;;7.45;63.57;94489.91;4970848;28;20383;-79
2021/10/17 07:06:54;;;;;;;130.77;18.73;;;;;;;7.67;64.59;94501.47;4994234;28;20232;-80
2021/10/17 07:09:20;;;;;;;132.10;18.97;;;;;;;7.86;64.64;94498.66;4957116;28;20730;-79
2021/10/17 07:11:45;;;;;;;225.43;20.83;;;;;;;8.01;64.12;94491.06;4964429;28;20209;-80
2021/10/17 07:14:13;;;;;;;101.00;17.97;;;;;;;8.26;64.45;94495.00;4978355;28;20224;-80
2021/10/17 07:16:38;;;;;;;260.10;20.60;;;;;;;8.23;64.32;94492.03;4980377;28;20679;-79
2021/10/17 07:19:06;;;;;;;162.43;19.50;;;;;;;8.56;64.32;94518.56;4978212;28;20257;-80
2021/10/17 07:21:36;;;;;;;203.70;19.63;;;;;;;8.68;64.74;94503.47;4968700;28;20207;-79
2021/10/17 07:24:04;;;;;;;223.77;19.87;;;;;;;8.63;64.61;94507.84;4961173;28;20214;-79
2021/10/17 07:26:30;;;;;;;282.27;21.10;;;;;;;8.75;65.17;94492.75;4996460;28;20229;-80
2021/10/17 07:28:55;;;;;;;142.20;17.30;;;;;;;8.86;65.33;94507.75;4997878;28;20213;-79
2021/10/17 07:31:21;;;;;;;122.43;16.30;;;;;;;8.95;64.89;94516.88;4991718;28;20597;-80
2021/10/17 07:33:46;;;;;;;155.07;18.47;;;;;;;8.94;64.92;94517.91;5004006;28;20227;-79
2021/10/17 07:36:12;;;;;;;206.07;18.60;;;;;;;9.07;64.92;94514.97;4975297;28;20315;-79
2021/10/17 07:38:39;;;;;;;177.53;17.77;;;;;;;9.17;65.11;94507.19;4964220;28;20300;-80
2021/10/17 07:41:05;;;;;;;250.40;19.13;;;;;;;9.23;65.39;94508.88;4981506;28;20691;-79
2021/10/17 07:43:32;;;;;;;85.13;14.70;;;;;;;9.38;65.47;94526.03;4972372;28;20247;-79
2021/10/17 07:46:01;;;;;;;168.43;17.17;;;;;;;9.50;65.44;94503.72;4975048;28;20219;-80
2021/10/17 07:48:27;;;;;;;96.27;15.83;;;;;;;9.54;65.52;94509.34;4974938;28;20676;-79
2021/10/17 07:50:55;;;;;;;298.13;20.00;;;;;;;9.60;65.29;94493.28;4942230;28;20365;-79
2021/10/17 07:53:22;;;;;;;242.63;19.27;;;;;;;9.50;65.11;94487.06;4969243;28;20231;-79
2021/10/17 07:55:48;;;;;;;94.30;14.20;;;;;;;9.72;65.21;94533.69;4958479;28;20219;-79
2021/10/17 07:58:14;;;;;;;109.57;15.10;;;;;;;10.00;65.38;94521.38;4986043;28;20218;-81
2021/10/17 08:00:39;;;;;;;115.40;14.83;;;;;;;10.19;65.73;94522.69;4961442;28;20266;-80
2021/10/17 08:03:04;;;;;;;67.47;12.87;;;;;;;10.47;65.61;94535.75;4942329;28;20877;-81
2021/10/17 08:05:35;;;;;;;62.10;11.63;;;;;;;10.60;65.34;94537.22;4970942;28;20235;-80
2021/10/17 08:08:00;;;;;;;126.00;13.70;;;;;;;11.06;65.29;94541.94;4965567;28;20259;-80
2021/10/17 08:10:25;;;;;;;114.87;13.77;;;;;;;11.36;65.69;94524.66;4970423;28;20303;-78
2021/10/17 08:12:51;;;;;;;77.50;13.57;;;;;;;11.79;65.64;94543.06;4942734;28;20226;-80
2021/10/17 08:15:16;;;;;;;112.80;13.97;;;;;;;12.06;65.36;94525.16;4972640;28;20296;-80
2021/10/17 08:17:44;;;;;;;138.03;13.70;;;;;;;11.76;65.72;94517.03;4973316;28;20225;-79
2021/10/17 08:20:10;;;;;;;114.90;14.73;;;;;;;12.28;65.61;94557.72;4940001;28;20240;-80
2021/10/17 08:22:36;;;;;;;91.07;12.83;;;;;;;12.65;65.52;94544.31;4948487;28;20222;-80
2021/10/17 08:25:04;;;;;;;90.57;12.37;;;;;;;12.49;65.51;94524.03;4951908;28;20212;-80
2021/10/17 08:27:30;;;;;;;77.53;13.10;;;;;;;12.58;65.38;94529.66;4952106;28;20636;-80
2021/10/17 08:29:55;;;;;;;59.10;12.40;;;;;;;12.40;65.52;94528.25;4961349;28;20527;-80
2021/10/17 08:32:21;;;;;;;81.77;13.03;;;;;;;12.63;65.44;94553.59;4973026;28;20313;-80
2021/10/17 08:34:46;;;;;;;51.37;12.77;;;;;;;13.11;65.15;94536.47;4964997;28;20237;-80
2021/10/17 08:37:12;;;;;;;56.07;11.60;;;;;;;13.29;65.46;94523.44;4974255;28;20728;-80
2021/10/17 08:39:38;;;;;;;73.77;12.60;;;;;;;13.42;65.21;94555.94;4958789;28;20252;-80
2021/10/17 08:42:11;;;;;;;47.30;11.27;;;;;;;13.99;65.54;94567.09;4989084;28;20327;-81
2021/10/17 08:44:36;;;;;;;18.20;10.60;;;;;;;14.64;65.62;94557.38;4957608;28;20220;-80
2021/10/17 08:47:02;;;;;;;34.27;12.13;;;;;;;14.72;65.06;94525.56;4957297;28;20265;-80
2021/10/17 08:49:28;;;;;;;21.53;12.17;;;;;;;14.33;65.37;94546.81;4974268;28;20299;-80
2021/10/17 08:51:53;;;;;;;15.20;11.47;;;;;;;14.55;65.41;94553.63;4958158;28;20635;-80
2021/10/17 08:54:19;;;;;;;24.13;12.00;;;;;;;14.50;65.34;94522.47;4987857;28;20238;-80
2021/10/17 08:56:45;;;;;;;26.87;11.87;;;;;;;14.37;65.09;94526.50;4982209;28;20216;-81
2021/10/17 08:59:13;;;;;;;13.00;11.47;;;;;;;14.67;64.95;94564.81;4985970;28;20442;-81
2021/10/17 09:01:40;;;;;;;25.57;12.13;;;;;;;15.39;65.06;94554.25;4942686;28;20241;-81
2021/10/17 09:04:07;;;;;;;22.77;12.37;;;;;;;16.05;65.01;94564.44;4957909;28;20206;-80
2021/10/17 09:06:34;;;;;;;16.60;12.30;;;;;;;16.53;65.15;94556.47;4994560;28;20323;-80
2021/10/17 09:09:10;;;;;;;26.50;12.53;;;;;;;16.41;64.81;94548.84;4978870;28;20291;-80
2021/10/17 09:11:40;;;;;;;18.57;12.50;;;;;;;16.15;64.83;94558.22;4960828;28;20214;-81
2021/10/17 09:14:11;;;;;;;28.23;13.27;;;;;;;16.35;64.70;94568.72;4972896;28;20212;-80
2021/10/17 09:16:42;;;;;;;16.33;11.97;;;;;;;16.10;64.59;94531.50;4959297;28;20574;-79
2021/10/17 09:19:08;;;;;;;18.70;12.10;;;;;;;15.95;64.63;94542.38;4959650;28;20305;-79
2021/10/17 09:21:34;;;;;;;17.17;12.53;;;;;;;15.58;64.47;94513.56;4989731;28;20209;-79
2021/10/17 09:24:02;;;;;;;22.40;12.43;;;;;;;16.01;64.56;94549.25;4973822;28;20963;-80
2021/10/17 09:26:27;;;;;;;22.50;12.87;;;;;;;15.81;64.36;94512.81;4957672;28;20759;-80
2021/10/17 09:28:53;;;;;;;38.13;12.70;;;;;;;15.55;64.16;94567.53;4961517;28;20326;-80
2021/10/17 09:31:20;;;;;;;13.57;12.17;;;;;;;15.33;64.19;94541.22;4972609;28;20818;-80
2021/10/17 09:33:53;;;;;;;24.73;13.47;;;;;;;15.17;63.77;94535.19;4972269;28;20214;-80
2021/10/17 09:36:34;;;;;;;14.90;12.63;;;;;;;15.15;64.21;94564.03;4969584;28;20204;-80
2021/10/17 09:39:09;;;;;;;15.80;12.60;;;;;;;15.20;64.11;94539.97;4979876;28;20213;-80
2021/10/17 09:41:47;;;;;;;22.07;12.50;;;;;;;15.15;64.04;94569.38;4973302;28;20225;-80
2021/10/17 09:44:12;;;;;;;16.70;12.87;;;;;;;14.84;63.89;94531.34;4987126;28;20228;-79
2021/10/17 09:46:40;;;;;;;14.53;12.97;;;;;;;15.29;63.66;94540.97;4955888;28;20227;-81
2021/10/17 09:49:17;;;;;;;13.67;12.27;;;;;;;15.56;63.68;94547.75;4981531;28;20227;-81
2021/10/17 09:51:45;;;;;;;14.53;13.03;;;;;;;15.70;63.96;94543.38;4952714;28;20221;-81
2021/10/17 09:54:12;;;;;;;14.33;12.80;;;;;;;16.10;63.83;94560.94;4973245;28;20274;-81
2021/10/17 09:56:39;;;;;;;14.13;12.67;;;;;;;17.00;63.92;94537.69;4980043;28;20669;-81
2021/10/17 09:59:07;;;;;;;16.60;12.77;;;;;;;17.33;63.67;94547.41;4966035;28;20633;-81
2021/10/17 10:01:34;;;;;;;13.97;12.57;;;;;;;18.15;63.20;94552.31;4951452;28;20215;-79
2021/10/17 10:04:05;;;;;;;12.93;11.73;;;;;;;18.20;63.58;94514.63;4985920;28;20292;-80
2021/10/17 10:06:33;;;;;;;13.27;11.97;;;;;;;18.37;63.55;94547.06;4974045;28;20219;-79
2021/10/17 10:09:19;;;;;;;12.97;11.77;;;;;;;19.95;63.13;94622.28;4964144;28;20216;-79
2021/10/17 10:11:46;;;;;;;12.77;11.37;;;;;;;20.86;63.11;94592.25;4972411;28;20594;-80
2021/10/17 10:14:17;;;;;;;11.83;10.70;;;;;;;24.19;62.75;94637.91;4969852;28;20212;-80
2021/10/17 10:16:43;;;;;;;11.80;10.70;;;;;;;26.75;62.52;94634.09;4970222;28;20214;-80
2021/10/17 10:19:12;;;;;;;11.10;10.07;;;;;;;28.89;62.15;94647.66;4970237;28;20224;-80
2021/10/17 10:21:40;;;;;;;10.57;9.67;;;;;;;31.46;60.97;94589.47;4958230;28;20213;-80
2021/10/17 10:24:08;;;;;;;10.47;9.67;;;;;;;30.36;60.79;94424.13;4969630;28;20217;-81
2021/10/17 10:26:37;;;;;;;9.70;8.90;;;;;;;31.02;60.49;94551.91;4982185;28;20275;-81
2021/10/17 10:29:05;;;;;;;9.77;8.97;;;;;;;33.46;59.47;94668.50;4970336;28;20228;-81
2021/10/17 10:31:50;;;;;;;9.73;8.90;;;;;;;35.32;58.49;94693.38;4972749;28;20224;-82
2021/10/17 10:34:22;;;;;;;9.90;9.03;;;;;;;34.40;58.37;94409.25;4972453;28;20205;-82
2021/10/17 10:36:53;;;;;;;9.97;8.97;;;;;;;34.07;57.14;94453.84;4965733;28;20333;-81
2021/10/17 10:39:21;;;;;;;9.27;8.47;;;;;;;34.88;56.50;94607.75;4964834;28;20292;-81
2021/10/17 10:41:54;;;;;;;8.80;8.10;;;;;;;35.77;56.01;94630.00;4972138;28;20294;-82
2021/10/17 10:44:24;;;;;;;9.50;8.70;;;;;;;37.52;54.91;94550.91;4950576;28;20594;-82
2021/10/17 10:46:52;;;;;;;9.65;8.85;;;;;;;37.48;53.98;94503.94;4997245;28;20256;-81
2021/10/17 10:49:42;;;;;;;10.00;9.07;;;;;;;37.51;53.54;94654.50;4981577;28;20220;-82
2021/10/17 10:52:30;;;;;;;9.07;8.38;;;;;;;37.46;53.08;94583.03;4975727;28;20200;-81
2021/10/17 10:55:29;;;;;;;8.57;7.88;;;;;;;37.64;51.83;94613.22;4979009;28;20205;-80
2021/10/17 10:57:59;;;;;;;10.05;9.15;;;;;;;37.49;51.35;94521.31;4935541;29;20231;-81
2021/10/17 11:00:31;;;;;;;9.10;8.48;;;;;;;37.50;50.91;94362.41;4937324;29;20642;-80
2021/10/17 11:03:14;;;;;;;9.55;8.85;;;;;;;36.44;49.93;94596.22;4937690;28;20567;-81
2021/10/17 11:05:40;;;;;;;10.10;9.30;;;;;;;33.91;50.06;94287.25;4929799;28;20274;-81
2021/10/17 11:08:14;;;;;;;10.33;9.43;;;;;;;31.82;49.65;94521.97;4935688;29;20217;-81
2021/10/17 11:10:40;;;;;;;11.37;10.43;;;;;;;29.90;49.59;94322.50;4934789;29;20221;-81
2021/10/17 11:13:08;;;;;;;10.63;9.67;;;;;;;27.47;48.86;94423.16;4920479;29;20213;-81
2021/10/17 11:15:38;;;;;;;11.50;10.50;;;;;;;24.89;48.90;94467.97;4925974;28;20752;-81
2021/10/17 11:18:12;;;;;;;11.77;10.83;;;;;;;23.52;48.68;94477.56;4939074;29;20216;-81
2021/10/17 11:20:43;;;;;;;11.83;10.73;;;;;;;25.50;48.18;94694.03;4921782;28;20303;-81